Pawcatuck, CT (06379)

11:31 AM EDT on May 05, 2015 (GMT -0400)
APRSWXNET | | Change Station
CLOSE
Current Station
Personal Weather Station
Location: Westerly, RI
Elevation: 68 ft
Nearby Weather Stations

Elev 68 ft 41.35 °N, 71.82 °W | Updated 45 minutes ago

Scattered Clouds
Scattered Clouds
65 °F
Feels Like 65 °F
N
6
Wind Variable Wind from SW
Gusts 6.0 mph

Today
High -- | Low -- °F
--% Chance of Precip.
Yesterday
High -- | Low -- °F
Precip. -- in
5:39 AM 7:48 PM
Full, 98% visible
Pressure 30.21 in
Visibility 10.0 miles
Clouds Scattered Clouds 12000 ft
Dew Point 53 °F
Humidity 66%
Rainfall in
Snow Depth Not available.
UV 7 out of 12
Pollen 8.80 out of 12
Air Quality Not available.
Flu Activity Widespread
METAR KWST 051453Z AUTO 23005KT 10SM SCT120 20/10 A3021 RMK AO2 SLP229 T02000100 53004

More Conditions Fewer Conditions

Pressure 30.21 in
Visibility 10.0 miles
Clouds Scattered Clouds 12000 ft
Dew Point 53 °F
Humidity 66%
Rainfall in
Snow Depth Not available.
UV 7 out of 12
Pollen 8.80 out of 12
Air Quality Not available.
Flu Activity Widespread
METAR KWST 051453Z AUTO 23005KT 10SM SCT120 20/10 A3021 RMK AO2 SLP229 T02000100 53004

More Conditions Fewer Conditions

10-Day Weather Forecast

Almanac

Astronomy

May. 05, 2015 Rise Set
Actual Time
Civil Twilight
Nautical Twilight
Astronomical Twilight
Moon
Length of Visible Light
Length of Day
Tomorrow will be .
, % of the Moon is Illuminated

Today's Extremes

State Highs State Lows

Community

WunderPhotos

Upload Photos

1,818,918 photos uploaded!

WunderBlogs® & News

Nearby

Air Quality

  Air Quality AQ Index Pollutant
Not available.

Snow Depth

Station Depth Elevation

Earthquake Activity

City Distance Mag. Time & Date
Minimum magnitude displayed is 2.5.

Coastal Water Temperatures

Place Temperature

Stations

Nearby Weather Stations

Station Location Temp. Windchill Dew Point Humidity Wind Precip. Elev Updated Type